createdAt,value
2022-12-13T00:02:26.550Z,7.40
2022-12-13T00:07:31.675Z,7.50
2022-12-13T00:12:35.335Z,6.72
2022-12-13T00:17:39.043Z,7.88
2022-12-13T00:22:44.080Z,7.07
2022-12-13T00:27:47.761Z,7.70
2022-12-13T00:32:51.500Z,7.65
2022-12-13T00:37:56.565Z,8.00
2022-12-13T00:43:00.362Z,7.55
2022-12-13T00:48:04.095Z,6.85
2022-12-13T00:53:09.113Z,6.35
2022-12-13T00:58:12.806Z,7.28
2022-12-13T01:03:25.583Z,7.57
2022-12-13T01:08:31.823Z,7.65
2022-12-13T01:13:35.955Z,7.05
2022-12-13T01:18:39.987Z,7.15
2022-12-13T01:23:45.827Z,7.88
2022-12-13T01:28:50.420Z,7.97
2022-12-13T01:33:54.104Z,8.32
2022-12-13T01:38:59.529Z,7.57
2022-12-13T01:44:05.124Z,7.75
2022-12-13T01:49:19.157Z,7.72
2022-12-13T01:54:33.231Z,8.55
2022-12-13T01:59:41.033Z,7.78
2022-12-13T02:04:52.268Z,7.90
2022-12-13T02:10:01.235Z,8.43
2022-12-13T02:15:11.659Z,8.13
2022-12-13T02:20:44.383Z,8.50
2022-12-13T02:26:17.347Z,8.25
2022-12-13T02:31:30.890Z,8.75
2022-12-13T02:36:40.888Z,7.82
2022-12-13T02:41:49.667Z,8.00
2022-12-13T02:46:57.722Z,9.20
2022-12-13T02:52:02.468Z,8.43
2022-12-13T02:57:06.248Z,7.72
2022-12-13T03:02:30.870Z,7.93
2022-12-13T03:07:46.045Z,8.60
2022-12-13T03:13:15.225Z,7.43
2022-12-13T03:18:23.169Z,8.20
2022-12-13T03:23:28.944Z,8.70
2022-12-13T03:28:32.763Z,7.97
2022-12-13T03:33:38.827Z,8.00
2022-12-13T03:38:42.816Z,8.27
2022-12-13T03:43:47.031Z,8.32
2022-12-13T03:48:52.036Z,9.10
2022-12-13T03:53:55.793Z,8.35
2022-12-13T03:58:59.615Z,8.82
2022-12-13T04:04:04.903Z,8.18
2022-12-13T04:09:08.631Z,8.68
2022-12-13T04:14:22.814Z,8.55
2022-12-13T04:19:28.153Z,9.25
2022-12-13T04:24:32.400Z,8.38
2022-12-13T04:29:36.229Z,8.82
2022-12-13T04:34:41.268Z,7.22
2022-12-13T04:39:47.863Z,8.07
2022-12-13T04:44:52.200Z,8.93
2022-12-13T04:49:57.209Z,7.38
2022-12-13T04:55:00.920Z,8.65
2022-12-13T05:00:06.040Z,9.43
2022-12-13T05:05:12.866Z,7.95
2022-12-13T05:10:37.448Z,8.30
2022-12-13T05:15:40.751Z,7.93
2022-12-13T05:20:45.785Z,8.70
2022-12-13T05:25:49.827Z,8.65
2022-12-13T05:30:54.078Z,9.38
2022-12-13T05:36:02.079Z,8.90
2022-12-13T05:41:06.585Z,8.50
2022-12-13T05:46:10.322Z,7.47
2022-12-13T05:51:15.499Z,9.20
2022-12-13T05:56:22.716Z,9.20
2022-12-13T06:01:27.132Z,8.65
2022-12-13T06:06:32.524Z,8.45
2022-12-13T06:11:36.347Z,9.05
2022-12-13T06:16:47.444Z,8.30
2022-12-13T06:21:54.545Z,8.10
2022-12-13T06:27:00.116Z,8.05
2022-12-13T06:32:04.855Z,8.77
2022-12-13T06:37:13.543Z,7.10
2022-12-13T06:42:21.444Z,8.55
2022-12-13T06:47:31.168Z,8.48
2022-12-13T06:52:37.885Z,8.73
2022-12-13T06:57:41.787Z,8.77
2022-12-13T07:02:45.733Z,9.05
2022-12-13T07:07:51.978Z,8.82
2022-12-13T07:12:56.920Z,9.48
2022-12-13T07:18:03.120Z,9.73
2022-12-13T07:23:11.242Z,10.00
2022-12-13T07:28:20.698Z,9.93
2022-12-13T07:33:29.787Z,10.52
2022-12-13T07:38:36.572Z,9.43
2022-12-13T07:43:41.856Z,9.63
2022-12-13T07:49:03.566Z,9.43
2022-12-13T07:54:08.850Z,11.13
2022-12-13T07:59:12.673Z,10.43
2022-12-13T08:04:16.464Z,9.30
2022-12-13T08:09:21.949Z,9.15
2022-12-13T08:14:25.742Z,9.98
2022-12-13T08:19:29.449Z,10.68
2022-12-13T08:24:36.360Z,9.48
2022-12-13T08:29:40.122Z,10.68
2022-12-13T08:34:45.606Z,11.75
2022-12-13T08:39:51.001Z,11.40
2022-12-13T08:44:55.472Z,12.13
2022-12-13T08:50:01.900Z,12.52
2022-12-13T08:55:10.487Z,11.65
2022-12-13T09:00:21.275Z,12.23
2022-12-13T09:05:34.130Z,16.02
2022-12-13T09:10:40.050Z,11.52
2022-12-13T09:15:45.779Z,13.07
2022-12-13T09:20:50.325Z,12.50
2022-12-13T09:26:05.705Z,11.98
2022-12-13T09:31:11.020Z,13.03
2022-12-13T09:36:17.104Z,12.10
2022-12-13T09:41:28.904Z,11.20
2022-12-13T09:46:44.296Z,11.63
2022-12-13T09:52:10.094Z,14.30
2022-12-13T09:57:32.283Z,18.20
2022-12-13T10:02:45.296Z,12.50
2022-12-13T10:07:49.707Z,16.45
2022-12-13T10:12:59.854Z,15.30
2022-12-13T10:18:05.320Z,14.18
2022-12-13T10:23:52.580Z,13.90
2022-12-13T10:28:35.023Z,12.35
2022-12-13T10:33:41.868Z,9.83
2022-12-13T10:44:17.311Z,11.77
2022-12-13T10:49:23.841Z,10.93
2022-12-13T10:54:38.799Z,11.77
2022-12-13T10:59:54.054Z,11.65
2022-12-13T11:04:58.653Z,11.60
2022-12-13T11:10:27.365Z,10.85
2022-12-13T11:15:35.644Z,11.57
2022-12-13T11:20:52.710Z,11.25
2022-12-13T11:26:00.803Z,11.98
2022-12-13T11:31:16.568Z,11.32
2022-12-13T11:36:30.907Z,12.07
2022-12-13T11:41:39.669Z,11.23
2022-12-13T11:46:49.222Z,11.20
2022-12-13T11:51:58.243Z,11.82
2022-12-13T11:57:08.190Z,10.07
2022-12-13T12:02:30.980Z,11.40
2022-12-13T12:07:58.444Z,11.55
2022-12-13T12:13:11.646Z,11.95
2022-12-13T12:18:17.939Z,12.02
2022-12-13T12:23:35.488Z,12.07
2022-12-13T12:29:04.676Z,11.55
2022-12-13T12:34:19.130Z,12.35
2022-12-13T12:39:44.571Z,15.13
2022-12-13T12:45:05.290Z,12.55
2022-12-13T12:50:33.831Z,16.17
2022-12-13T12:55:49.331Z,15.00
2022-12-13T13:01:11.128Z,12.68
2022-12-13T13:06:22.065Z,12.68
2022-12-13T13:11:27.452Z,14.15
2022-12-13T13:16:34.137Z,14.98
2022-12-13T13:21:52.774Z,12.82
2022-12-13T13:26:57.814Z,11.02
2022-12-13T13:32:05.164Z,12.57
2022-12-13T13:37:29.194Z,12.38
2022-12-13T13:42:33.665Z,11.52
2022-12-13T13:47:42.750Z,11.45
2022-12-13T13:53:02.629Z,11.43
2022-12-13T13:58:45.927Z,11.13
2022-12-13T14:04:31.713Z,12.25
2022-12-13T14:10:04.541Z,11.18
2022-12-13T14:15:56.572Z,11.25
2022-12-13T14:21:11.442Z,10.20
2022-12-13T14:26:41.836Z,10.35
2022-12-13T14:31:48.064Z,11.20
2022-12-13T14:36:59.968Z,11.13
2022-12-13T14:42:23.807Z,11.85
2022-12-13T14:47:29.046Z,12.98
2022-12-13T14:52:40.156Z,9.80
2022-12-13T14:57:54.284Z,10.82
2022-12-13T15:02:59.884Z,10.93
2022-12-13T15:08:10.213Z,9.80
2022-12-13T15:13:29.017Z,10.77
2022-12-13T15:18:34.815Z,9.90
2022-12-13T15:23:54.019Z,9.40
2022-12-13T15:29:10.399Z,9.98
2022-12-13T15:34:29.837Z,8.48
2022-12-13T15:39:39.320Z,9.55
2022-12-13T15:44:48.305Z,10.38
2022-12-13T15:49:54.104Z,10.90
2022-12-13T15:54:59.125Z,10.18
2022-12-13T16:00:08.542Z,10.60
2022-12-13T16:05:28.089Z,9.30
2022-12-13T16:10:32.207Z,9.05
2022-12-13T16:15:51.202Z,10.10
2022-12-13T16:20:57.926Z,9.82
2022-12-13T16:26:08.512Z,10.85
2022-12-13T16:31:19.135Z,14.95
2022-12-13T16:36:23.516Z,13.80
2022-12-13T16:41:41.609Z,14.13
2022-12-13T16:47:12.561Z,14.25
2022-12-13T16:52:11.409Z,12.57
2022-12-13T16:57:15.622Z,13.10
2022-12-13T17:02:21.596Z,11.88
2022-12-13T17:07:25.532Z,11.33
2022-12-13T17:12:29.260Z,10.32
2022-12-13T17:17:34.316Z,9.75
2022-12-13T17:22:38.559Z,10.40
2022-12-13T17:27:42.907Z,10.77
2022-12-13T17:32:48.180Z,10.77
2022-12-13T17:37:52.779Z,10.73
2022-12-13T17:42:56.628Z,10.10
2022-12-13T17:48:01.744Z,9.88
2022-12-13T17:53:05.567Z,10.52
2022-12-13T17:58:09.319Z,14.18
2022-12-13T18:03:14.342Z,11.38
2022-12-13T18:08:18.546Z,10.50
2022-12-13T18:13:22.720Z,8.88
2022-12-13T18:18:28.159Z,10.48
2022-12-13T18:23:32.066Z,11.40
2022-12-13T18:28:35.748Z,9.25
2022-12-13T18:33:47.209Z,10.00
2022-12-13T18:38:51.624Z,9.00
2022-12-13T18:43:59.478Z,9.45
2022-12-13T18:49:06.049Z,9.32
2022-12-13T18:54:09.918Z,8.23
2022-12-13T18:59:14.087Z,9.10
2022-12-13T19:04:19.313Z,8.40
2022-12-13T19:09:23.422Z,8.95
2022-12-13T19:14:28.247Z,11.05
2022-12-13T19:19:33.541Z,11.98
2022-12-13T19:24:37.272Z,10.85
2022-12-13T19:29:41.084Z,9.82
2022-12-13T19:34:46.195Z,9.30
2022-12-13T19:39:49.980Z,8.00
2022-12-13T19:44:53.689Z,8.45
2022-12-13T19:49:58.829Z,8.10
2022-12-13T19:55:02.560Z,10.85
2022-12-13T20:00:07.411Z,9.95
2022-12-13T20:05:12.479Z,11.32
2022-12-13T20:10:16.148Z,10.73
2022-12-13T20:15:21.011Z,10.25
2022-12-13T20:20:41.025Z,9.70
2022-12-13T20:26:00.749Z,11.65
2022-12-13T20:31:08.443Z,9.73
2022-12-13T20:36:25.164Z,11.27
2022-12-13T20:41:33.704Z,11.80
2022-12-13T20:46:37.911Z,14.55
2022-12-13T20:51:43.316Z,11.93
2022-12-13T20:56:47.223Z,9.20
2022-12-13T21:01:50.969Z,9.60
2022-12-13T21:06:56.028Z,8.43
2022-12-13T21:11:59.722Z,8.75
2022-12-13T21:17:04.845Z,9.32
2022-12-13T21:22:10.043Z,8.00
2022-12-13T21:27:13.703Z,8.05
2022-12-13T21:32:17.352Z,9.27
2022-12-13T21:37:22.462Z,8.10
2022-12-13T21:42:26.241Z,9.90
2022-12-13T21:47:30.197Z,8.02
2022-12-13T21:52:35.381Z,8.57
2022-12-13T21:57:56.425Z,6.90
2022-12-13T22:03:00.208Z,7.68
2022-12-13T22:08:05.506Z,7.53
2022-12-13T22:13:09.265Z,6.90
2022-12-13T22:18:12.953Z,6.75
2022-12-13T22:23:17.994Z,6.85
2022-12-13T22:28:21.820Z,6.60
2022-12-13T22:33:25.506Z,6.60
2022-12-13T22:38:30.581Z,6.88
2022-12-13T22:43:35.916Z,7.75
2022-12-13T22:48:40.730Z,7.38
2022-12-13T22:53:47.022Z,7.13
2022-12-13T22:58:55.226Z,6.50
2022-12-13T23:03:58.999Z,7.00
2022-12-13T23:09:06.540Z,6.32
2022-12-13T23:14:11.851Z,7.20
2022-12-13T23:19:41.032Z,6.45
2022-12-13T23:24:42.168Z,6.30
2022-12-13T23:29:45.841Z,7.32
2022-12-13T23:34:49.472Z,5.97
2022-12-13T23:39:54.819Z,6.63
2022-12-13T23:44:58.722Z,6.10
2022-12-13T23:50:02.382Z,6.50
2022-12-13T23:55:08.395Z,5.85
